Matewan, West Virginia
Current Conditions -  °F | °C
As of 1:55 AM on Monday 22 Dec 2014 (Local Time) from KPBX Reporting Station
Clear Clear  
Wind Chill: 27°   Ceiling: Unl
Heat Index: 33°   Visibility: 10mi
Dew Point: 28°   Wind: 6mph
Humidity: 82%   Direction: 160°SSE
Pressure: 30.08"   Gusts: NA
Location:  37.62°N, 82.16°W
Report Text: KPBX 220655Z AUTO 16005KT 10SM CLR 00/M02 A3008 RMK AO2 T00031025
Loading
Personal Weather Stations






























Interactive Weather Map New forecast layout! Learn more

10-Day Weather Forecast

Advertisements
Track Severe Weather on mobile